Sturgeon Bay, WI

2:15 PM CST on January 23, 2017 (GMT -0600)
Leif Everson Observatory | | Change Station
Active Advisory: Dense Fog Advisory

Elev 636 ft 44.83 °N, 87.34 °W | Updated 2 minutes ago

Fog
Fog
36.3 °F
Feels Like 36 °F
N
1.0
Wind Variable Wind from NNW
Gusts 1.0 mph

Today
High -- | Low -- °F
--% Chance of Precip.
Yesterday
High -- | Low -- °F
Precip. -- in
Pressure 29.75 in
Visibility 0.2 miles
Clouds Overcast 300 ft
Windchill 36 °F
Dew Point 36 °F
Humidity 100%
Rainfall 0.00 in
Snow Depth Not available.
7:17 AM 4:45 PM
Waning Crescent, 16% visible
METAR KSUE 231956Z AUTO 33006KT 1/4SM FG OVC003 02/02 A2975 RMK AO2 SLPNO T00170017 FZRANO RVRNO
Pressure 29.75 in
Visibility 0.2 miles
Clouds Overcast 300 ft
Windchill 36 °F
Dew Point 36 °F
Humidity 100%
Rainfall 0.00 in
Snow Depth Not available.
7:17 AM 4:45 PM
Waning Crescent, 16% visible
METAR KSUE 231956Z AUTO 33006KT 1/4SM FG OVC003 02/02 A2975 RMK AO2 SLPNO T00170017 FZRANO RVRNO

Get Your Daily Forecast Email!

Thanks for signing up!

Be on the lookout for a verification email in your inbox.

You'll start receiving the daily forecast at 8 AM.

×

10-Day Weather Forecast

Almanac

Astronomy

Jan. 23, 2017 Rise Set
Actual Time
Civil Twilight
Nautical Twilight
Astronomical Twilight
Moon
Length of Visible Light
Length of Day
Tomorrow will be .
, % of the Moon is Illuminated

Today's Extremes

State Highs State Lows

Community

WunderPhotos

Upload Photos

1,962,540 photos uploaded!

WunderBlog® & News

Nearby

Air Quality

  Air Quality AQ Index Pollutant
Not available.

Snow Depth

Station Depth Elevation

Earthquake Activity

City Distance Mag. Time & Date
Minimum magnitude displayed is 2.5.

Coastal Water Temperatures

Place Temperature

Stations

Nearby Weather Stations

Station Location Temp. Windchill Dew Point Humidity Wind Precip. Elev Updated Type
                   

Watches & Warnings

Dense Fog Advisory
Issued: 12:45 PM CST Jan. 23, 2017 – National Weather Service

... Dense fog advisory now in effect until 10 PM CST this
evening...

* dense fog will reduce visibilities to a quarter of a mile or
less... and at times down to a few hundred feet this afternoon
into early this evening. Conditions should gradually improve
later this evening and overnight.

* The dense fog will create hazardous travel conditions due to
poor visibilities.

Precautionary/preparedness actions...

A dense fog advisory means visibilities will frequently be
reduced to less than one quarter mile. If driving... slow down...
use your headlights... and leave plenty of distance ahead of you.


Eckberg